This is the latest recevied weather packets stored in our database for station/object LRBO. If no packets are shown the sender has not sent any weather packets the latest 10 day(s).
| Time | Temp. | Humidity | Pressure | Rain* | Wind** | Luminosity | Snow |
|---|---|---|---|---|---|---|---|
| 1777957433 | 10° C | 82% | 1016 hPa | - | - | - | - |
| 1777956533 | 7.22° C | 93% | 1015 hPa | - | - | - | - |
| 1777955633 | 7.22° C | 93% | 1015 hPa | - | - | - | - |
| 1777954734 | 7.22° C | 93% | 1015 hPa | - | - | - | - |
| 1777953833 | 7.22° C | 93% | 1015 hPa | - | - | - | - |
| 1777943034 | 7.78° C | 82% | 1016 hPa | - | - | - | - |
| 1777941233 | 8.89° C | 76% | 1015 hPa | - | - | - | - |
| 1777940331 | 8.89° C | 76% | 1015 hPa | - | - | - | - |
| 1777939434 | 8.89° C | 76% | 1015 hPa | - | - | - | - |
| 1777938531 | 8.89° C | 82% | 1016 hPa | - | - | - | - |
| 1777929533 | 10° C | 82% | 1015 hPa | - | - | - | - |
| 1777926835 | 11.11° C | 77% | 1015 hPa | - | - | - | - |
| 1777925034 | 11.11° C | 77% | 1015 hPa | - | - | - | - |
| 1777923234 | 12.78° C | 67% | 1015 hPa | - | - | - | - |
| 1777916034 | 18.89° C | 49% | 1014 hPa | - | - | - | - |
| 1777915133 | 18.89° C | 49% | 1014 hPa | - | - | - | - |
| 1777914233 | 18.89° C | 49% | 1014 hPa | - | - | - | - |
| 1777913334 | 21.11° C | 40% | 1014 hPa | - | - | - | - |
| 1777912448 | 21.11° C | 40% | 1014 hPa | - | - | - | - |
| 1777911542 | 21.11° C | 40% | 1014 hPa | - | - | - | - |
| 1777910634 | 21.11° C | 40% | 1014 hPa | - | - | - | - |
| 1777908833 | 21.11° C | 40% | 1014 hPa | - | - | - | - |
| 1777907934 | 21.11° C | 40% | 1014 hPa | - | - | - | - |
| 1777907033 | 21.11° C | 40% | 1014 hPa | - | - | - | - |
| 1777906133 | 21.11° C | 46% | 1014 hPa | - | - | - | - |
* Rain since midnight (hover to see other rain measurements)
** Current wind speed in m/s (hover to see current wind gust speed)